sensor_id;sensor_type;location;lat;lon;timestamp;temperature;humidity
22986;DHT22;11659;51.092;7.080;2022-11-20T00:01:53;4.70;99.90
22986;DHT22;11659;51.092;7.080;2022-11-20T00:04:20;4.70;99.90
22986;DHT22;11659;51.092;7.080;2022-11-20T00:06:46;4.80;99.90
22986;DHT22;11659;51.092;7.080;2022-11-20T00:09:12;4.80;99.90
22986;DHT22;11659;51.092;7.080;2022-11-20T00:11:38;4.80;99.90
22986;DHT22;11659;51.092;7.080;2022-11-20T00:14:04;4.80;99.90
22986;DHT22;11659;51.092;7.080;2022-11-20T00:16:31;4.90;99.90
22986;DHT22;11659;51.092;7.080;2022-11-20T00:18:58;4.80;99.90
22986;DHT22;11659;51.092;7.080;2022-11-20T00:21:27;4.80;99.90
22986;DHT22;11659;51.092;7.080;2022-11-20T00:23:55;4.80;99.90
22986;DHT22;11659;51.092;7.080;2022-11-20T00:26:22;4.80;99.90
22986;DHT22;11659;51.092;7.080;2022-11-20T00:28:50;4.80;99.90
22986;DHT22;11659;51.092;7.080;2022-11-20T00:31:16;4.80;99.90
22986;DHT22;11659;51.092;7.080;2022-11-20T00:33:43;5.80;99.90
22986;DHT22;11659;51.092;7.080;2022-11-20T00:36:11;4.80;99.90
22986;DHT22;11659;51.092;7.080;2022-11-20T00:38:38;4.80;99.90
22986;DHT22;11659;51.092;7.080;2022-11-20T00:41:06;4.70;99.90
22986;DHT22;11659;51.092;7.080;2022-11-20T00:43:33;4.80;99.90
22986;DHT22;11659;51.092;7.080;2022-11-20T00:45:59;4.80;99.90
22986;DHT22;11659;51.092;7.080;2022-11-20T00:48:26;4.80;99.90
22986;DHT22;11659;51.092;7.080;2022-11-20T00:50:53;4.80;99.90
22986;DHT22;11659;51.092;7.080;2022-11-20T00:53:19;4.70;99.90
22986;DHT22;11659;51.092;7.080;2022-11-20T00:55:54;4.70;99.90
22986;DHT22;11659;51.092;7.080;2022-11-20T00:58:21;4.70;99.90
22986;DHT22;11659;51.092;7.080;2022-11-20T01:00:46;4.80;99.90
22986;DHT22;11659;51.092;7.080;2022-11-20T01:03:13;4.80;99.90
22986;DHT22;11659;51.092;7.080;2022-11-20T01:05:42;4.80;99.90
22986;DHT22;11659;51.092;7.080;2022-11-20T01:08:08;4.80;99.90
22986;DHT22;11659;51.092;7.080;2022-11-20T01:10:34;4.70;99.90
22986;DHT22;11659;51.092;7.080;2022-11-20T01:13:01;4.70;99.90
22986;DHT22;11659;51.092;7.080;2022-11-20T01:15:46;4.70;99.90
22986;DHT22;11659;51.092;7.080;2022-11-20T01:18:12;4.70;99.90
22986;DHT22;11659;51.092;7.080;2022-11-20T01:20:37;4.70;99.90
22986;DHT22;11659;51.092;7.080;2022-11-20T01:23:03;4.70;99.90
22986;DHT22;11659;51.092;7.080;2022-11-20T01:25:29;4.70;99.90
22986;DHT22;11659;51.092;7.080;2022-11-20T01:27:55;4.80;99.90
22986;DHT22;11659;51.092;7.080;2022-11-20T01:30:23;4.80;99.90
22986;DHT22;11659;51.092;7.080;2022-11-20T01:32:49;4.80;99.90
22986;DHT22;11659;51.092;7.080;2022-11-20T01:35:15;4.70;99.90
22986;DHT22;11659;51.092;7.080;2022-11-20T01:37:40;4.70;99.90
22986;DHT22;11659;51.092;7.080;2022-11-20T01:40:07;4.50;99.90
22986;DHT22;11659;51.092;7.080;2022-11-20T01:42:33;4.50;99.90
22986;DHT22;11659;51.092;7.080;2022-11-20T01:45:57;4.40;99.90
22986;DHT22;11659;51.092;7.080;2022-11-20T01:48:26;4.40;99.90
22986;DHT22;11659;51.092;7.080;2022-11-20T01:50:54;4.30;99.90
22986;DHT22;11659;51.092;7.080;2022-11-20T01:53:24;4.20;99.90
22986;DHT22;11659;51.092;7.080;2022-11-20T01:55:53;4.20;99.90
22986;DHT22;11659;51.092;7.080;2022-11-20T01:58:25;4.20;99.90
22986;DHT22;11659;51.092;7.080;2022-11-20T02:00:51;4.10;99.90
22986;DHT22;11659;51.092;7.080;2022-11-20T02:03:19;4.10;99.90
22986;DHT22;11659;51.092;7.080;2022-11-20T02:05:49;4.00;99.90
22986;DHT22;11659;51.092;7.080;2022-11-20T02:08:17;4.00;99.90
22986;DHT22;11659;51.092;7.080;2022-11-20T02:10:44;4.00;99.90
22986;DHT22;11659;51.092;7.080;2022-11-20T02:13:11;3.90;99.90
22986;DHT22;11659;51.092;7.080;2022-11-20T02:15:55;3.90;99.90
22986;DHT22;11659;51.092;7.080;2022-11-20T02:18:23;3.90;99.90
22986;DHT22;11659;51.092;7.080;2022-11-20T02:20:53;4.00;99.90
22986;DHT22;11659;51.092;7.080;2022-11-20T02:23:27;3.90;99.90
22986;DHT22;11659;51.092;7.080;2022-11-20T02:25:57;3.90;99.90
22986;DHT22;11659;51.092;7.080;2022-11-20T02:28:24;4.00;99.90
22986;DHT22;11659;51.092;7.080;2022-11-20T02:30:50;4.00;99.90
22986;DHT22;11659;51.092;7.080;2022-11-20T02:33:16;4.00;99.90
22986;DHT22;11659;51.092;7.080;2022-11-20T02:35:44;4.10;99.90
22986;DHT22;11659;51.092;7.080;2022-11-20T02:38:11;4.10;99.90
22986;DHT22;11659;51.092;7.080;2022-11-20T02:40:37;4.10;99.90
22986;DHT22;11659;51.092;7.080;2022-11-20T02:43:04;4.20;99.90
22986;DHT22;11659;51.092;7.080;2022-11-20T02:45:30;4.30;99.90
22986;DHT22;11659;51.092;7.080;2022-11-20T02:47:56;4.30;99.90
22986;DHT22;11659;51.092;7.080;2022-11-20T02:50:22;4.40;99.90
22986;DHT22;11659;51.092;7.080;2022-11-20T02:52:48;4.40;99.90
22986;DHT22;11659;51.092;7.080;2022-11-20T02:55:14;4.40;99.90
22986;DHT22;11659;51.092;7.080;2022-11-20T02:57:40;4.50;99.90
22986;DHT22;11659;51.092;7.080;2022-11-20T03:00:09;4.50;99.90
22986;DHT22;11659;51.092;7.080;2022-11-20T03:02:35;5.90;99.90
22986;DHT22;11659;51.092;7.080;2022-11-20T03:05:01;4.50;99.90
22986;DHT22;11659;51.092;7.080;2022-11-20T03:07:27;4.50;99.90
22986;DHT22;11659;51.092;7.080;2022-11-20T03:09:53;4.50;99.90
22986;DHT22;11659;51.092;7.080;2022-11-20T03:12:19;4.50;99.90
22986;DHT22;11659;51.092;7.080;2022-11-20T03:14:44;4.40;99.90
22986;DHT22;11659;51.092;7.080;2022-11-20T03:17:12;4.40;99.90
22986;DHT22;11659;51.092;7.080;2022-11-20T03:19:38;4.40;99.90
22986;DHT22;11659;51.092;7.080;2022-11-20T03:22:03;4.40;99.90
22986;DHT22;11659;51.092;7.080;2022-11-20T03:24:29;4.40;99.90
22986;DHT22;11659;51.092;7.080;2022-11-20T03:26:55;4.30;99.90
22986;DHT22;11659;51.092;7.080;2022-11-20T03:29:21;4.30;99.90
22986;DHT22;11659;51.092;7.080;2022-11-20T03:31:47;4.30;99.90
22986;DHT22;11659;51.092;7.080;2022-11-20T03:34:14;4.30;99.90
22986;DHT22;11659;51.092;7.080;2022-11-20T03:36:41;4.30;99.90
22986;DHT22;11659;51.092;7.080;2022-11-20T03:39:08;4.20;99.90
22986;DHT22;11659;51.092;7.080;2022-11-20T03:41:37;4.10;99.90
22986;DHT22;11659;51.092;7.080;2022-11-20T03:44:04;4.10;99.90
22986;DHT22;11659;51.092;7.080;2022-11-20T03:46:31;4.30;99.90
22986;DHT22;11659;51.092;7.080;2022-11-20T03:48:57;4.10;99.90
22986;DHT22;11659;51.092;7.080;2022-11-20T03:51:26;4.10;99.90
22986;DHT22;11659;51.092;7.080;2022-11-20T03:53:54;4.10;99.90
22986;DHT22;11659;51.092;7.080;2022-11-20T03:56:23;4.10;99.90
22986;DHT22;11659;51.092;7.080;2022-11-20T03:58:50;4.10;99.90
22986;DHT22;11659;51.092;7.080;2022-11-20T04:01:17;4.10;99.90
22986;DHT22;11659;51.092;7.080;2022-11-20T04:03:45;4.00;99.90
22986;DHT22;11659;51.092;7.080;2022-11-20T04:06:13;4.00;99.90
22986;DHT22;11659;51.092;7.080;2022-11-20T04:08:41;4.00;99.90
22986;DHT22;11659;51.092;7.080;2022-11-20T04:11:09;4.00;99.90
22986;DHT22;11659;51.092;7.080;2022-11-20T04:13:36;4.00;99.90
22986;DHT22;11659;51.092;7.080;2022-11-20T04:16:02;3.90;99.90
22986;DHT22;11659;51.092;7.080;2022-11-20T04:18:28;3.90;99.90
22986;DHT22;11659;51.092;7.080;2022-11-20T04:20:56;3.90;99.90
22986;DHT22;11659;51.092;7.080;2022-11-20T04:23:22;3.80;99.90
22986;DHT22;11659;51.092;7.080;2022-11-20T04:25:49;3.80;99.90
22986;DHT22;11659;51.092;7.080;2022-11-20T04:28:15;3.90;99.90
22986;DHT22;11659;51.092;7.080;2022-11-20T04:30:41;4.00;99.90
22986;DHT22;11659;51.092;7.080;2022-11-20T04:33:07;4.00;99.90
22986;DHT22;11659;51.092;7.080;2022-11-20T04:35:33;4.10;99.90
22986;DHT22;11659;51.092;7.080;2022-11-20T04:37:59;4.10;99.90
22986;DHT22;11659;51.092;7.080;2022-11-20T04:40:25;4.10;99.90
22986;DHT22;11659;51.092;7.080;2022-11-20T04:42:53;4.10;99.90
22986;DHT22;11659;51.092;7.080;2022-11-20T04:45:19;4.20;99.90
22986;DHT22;11659;51.092;7.080;2022-11-20T04:47:45;4.20;99.90
22986;DHT22;11659;51.092;7.080;2022-11-20T04:50:11;4.20;99.90
22986;DHT22;11659;51.092;7.080;2022-11-20T04:52:37;4.20;99.90
22986;DHT22;11659;51.092;7.080;2022-11-20T04:55:04;4.20;99.90
22986;DHT22;11659;51.092;7.080;2022-11-20T04:57:30;4.20;99.90
22986;DHT22;11659;51.092;7.080;2022-11-20T04:59:57;4.10;99.90
22986;DHT22;11659;51.092;7.080;2022-11-20T05:02:23;4.10;99.90
22986;DHT22;11659;51.092;7.080;2022-11-20T05:04:49;4.10;99.90
22986;DHT22;11659;51.092;7.080;2022-11-20T05:07:15;4.10;99.90
22986;DHT22;11659;51.092;7.080;2022-11-20T05:09:41;4.00;99.90
22986;DHT22;11659;51.092;7.080;2022-11-20T05:12:07;4.00;99.90
22986;DHT22;11659;51.092;7.080;2022-11-20T05:14:33;4.10;99.90
22986;DHT22;11659;51.092;7.080;2022-11-20T05:17:00;4.00;99.90
22986;DHT22;11659;51.092;7.080;2022-11-20T05:19:26;4.00;99.90
22986;DHT22;11659;51.092;7.080;2022-11-20T05:21:52;4.00;99.90
22986;DHT22;11659;51.092;7.080;2022-11-20T05:24:18;3.90;99.90
22986;DHT22;11659;51.092;7.080;2022-11-20T05:26:44;3.90;99.90
22986;DHT22;11659;51.092;7.080;2022-11-20T05:29:11;3.90;99.90
22986;DHT22;11659;51.092;7.080;2022-11-20T05:31:38;3.90;99.90
22986;DHT22;11659;51.092;7.080;2022-11-20T05:34:06;4.00;99.90
22986;DHT22;11659;51.092;7.080;2022-11-20T05:36:32;4.00;99.90
22986;DHT22;11659;51.092;7.080;2022-11-20T05:38:58;4.00;99.90
22986;DHT22;11659;51.092;7.080;2022-11-20T05:41:24;4.00;99.90
22986;DHT22;11659;51.092;7.080;2022-11-20T05:43:51;4.00;99.90
22986;DHT22;11659;51.092;7.080;2022-11-20T05:46:19;4.10;99.90
22986;DHT22;11659;51.092;7.080;2022-11-20T05:48:46;4.10;99.90
22986;DHT22;11659;51.092;7.080;2022-11-20T05:51:16;4.10;99.90
22986;DHT22;11659;51.092;7.080;2022-11-20T05:53:42;4.10;99.90
22986;DHT22;11659;51.092;7.080;2022-11-20T05:56:11;4.10;99.90
22986;DHT22;11659;51.092;7.080;2022-11-20T05:58:38;4.10;99.90
22986;DHT22;11659;51.092;7.080;2022-11-20T06:01:06;4.00;99.90
22986;DHT22;11659;51.092;7.080;2022-11-20T06:03:32;4.10;99.90
22986;DHT22;11659;51.092;7.080;2022-11-20T06:05:58;4.20;99.90
22986;DHT22;11659;51.092;7.080;2022-11-20T06:08:26;4.20;99.90
22986;DHT22;11659;51.092;7.080;2022-11-20T06:10:52;4.20;99.90
22986;DHT22;11659;51.092;7.080;2022-11-20T06:13:18;4.30;99.90
22986;DHT22;11659;51.092;7.080;2022-11-20T06:15:48;4.30;99.90
22986;DHT22;11659;51.092;7.080;2022-11-20T06:18:14;4.30;99.90
22986;DHT22;11659;51.092;7.080;2022-11-20T06:20:40;4.30;99.90
22986;DHT22;11659;51.092;7.080;2022-11-20T06:23:06;4.30;99.90
22986;DHT22;11659;51.092;7.080;2022-11-20T06:25:37;4.20;99.90
22986;DHT22;11659;51.092;7.080;2022-11-20T06:28:03;4.20;99.90
22986;DHT22;11659;51.092;7.080;2022-11-20T06:30:29;4.20;99.90
22986;DHT22;11659;51.092;7.080;2022-11-20T06:32:55;4.20;99.90
22986;DHT22;11659;51.092;7.080;2022-11-20T06:35:21;4.20;99.90
22986;DHT22;11659;51.092;7.080;2022-11-20T06:37:47;4.20;99.90
22986;DHT22;11659;51.092;7.080;2022-11-20T06:40:13;4.30;99.90
22986;DHT22;11659;51.092;7.080;2022-11-20T06:42:40;4.30;99.90
22986;DHT22;11659;51.092;7.080;2022-11-20T06:45:08;4.30;99.90
22986;DHT22;11659;51.092;7.080;2022-11-20T06:47:34;4.30;99.90
22986;DHT22;11659;51.092;7.080;2022-11-20T06:50:00;4.20;99.90
22986;DHT22;11659;51.092;7.080;2022-11-20T06:52:26;4.20;99.90
22986;DHT22;11659;51.092;7.080;2022-11-20T06:54:52;4.10;99.90
22986;DHT22;11659;51.092;7.080;2022-11-20T06:57:18;4.10;99.90
22986;DHT22;11659;51.092;7.080;2022-11-20T06:59:45;4.00;99.90
22986;DHT22;11659;51.092;7.080;2022-11-20T07:02:11;4.00;99.90
22986;DHT22;11659;51.092;7.080;2022-11-20T07:04:37;3.90;99.90
22986;DHT22;11659;51.092;7.080;2022-11-20T07:07:03;3.90;99.90
22986;DHT22;11659;51.092;7.080;2022-11-20T07:09:29;3.80;99.90
22986;DHT22;11659;51.092;7.080;2022-11-20T07:11:55;3.70;99.90
22986;DHT22;11659;51.092;7.080;2022-11-20T07:14:21;3.70;99.90
22986;DHT22;11659;51.092;7.080;2022-11-20T07:16:48;3.60;99.90
22986;DHT22;11659;51.092;7.080;2022-11-20T07:19:14;3.60;99.90
22986;DHT22;11659;51.092;7.080;2022-11-20T07:21:40;3.60;99.90
22986;DHT22;11659;51.092;7.080;2022-11-20T07:24:06;3.50;99.90
22986;DHT22;11659;51.092;7.080;2022-11-20T07:26:32;3.60;99.90
22986;DHT22;11659;51.092;7.080;2022-11-20T07:28:58;3.50;99.90
22986;DHT22;11659;51.092;7.080;2022-11-20T07:31:24;3.50;99.90
22986;DHT22;11659;51.092;7.080;2022-11-20T07:33:52;3.50;99.90
22986;DHT22;11659;51.092;7.080;2022-11-20T07:36:17;3.50;99.90
22986;DHT22;11659;51.092;7.080;2022-11-20T07:38:43;3.40;99.90
22986;DHT22;11659;51.092;7.080;2022-11-20T07:41:09;3.30;99.90
22986;DHT22;11659;51.092;7.080;2022-11-20T07:43:35;3.30;99.90
22986;DHT22;11659;51.092;7.080;2022-11-20T07:46:01;3.20;99.90
22986;DHT22;11659;51.092;7.080;2022-11-20T07:48:29;3.10;99.90
22986;DHT22;11659;51.092;7.080;2022-11-20T07:50:57;3.20;99.90
22986;DHT22;11659;51.092;7.080;2022-11-20T07:53:23;3.20;99.90
22986;DHT22;11659;51.092;7.080;2022-11-20T07:55:49;3.30;99.90
22986;DHT22;11659;51.092;7.080;2022-11-20T07:58:18;3.40;99.90
22986;DHT22;11659;51.092;7.080;2022-11-20T08:00:44;3.40;99.90
22986;DHT22;11659;51.092;7.080;2022-11-20T08:03:10;3.40;99.90
22986;DHT22;11659;51.092;7.080;2022-11-20T08:05:36;3.40;99.90
22986;DHT22;11659;51.092;7.080;2022-11-20T08:08:04;3.40;99.90
22986;DHT22;11659;51.092;7.080;2022-11-20T08:10:30;3.40;99.90
22986;DHT22;11659;51.092;7.080;2022-11-20T08:12:56;3.40;99.90
22986;DHT22;11659;51.092;7.080;2022-11-20T08:15:40;3.50;99.90
22986;DHT22;11659;51.092;7.080;2022-11-20T08:18:08;3.50;99.90
22986;DHT22;11659;51.092;7.080;2022-11-20T08:20:34;3.50;99.90
22986;DHT22;11659;51.092;7.080;2022-11-20T08:23:00;3.50;99.90
22986;DHT22;11659;51.092;7.080;2022-11-20T08:25:29;3.50;99.90
22986;DHT22;11659;51.092;7.080;2022-11-20T08:27:57;3.60;99.90
22986;DHT22;11659;51.092;7.080;2022-11-20T08:30:23;3.60;99.90
22986;DHT22;11659;51.092;7.080;2022-11-20T08:32:49;3.60;99.90
22986;DHT22;11659;51.092;7.080;2022-11-20T08:35:18;3.70;99.90
22986;DHT22;11659;51.092;7.080;2022-11-20T08:37:46;3.80;99.90
22986;DHT22;11659;51.092;7.080;2022-11-20T08:40:12;3.80;99.90
22986;DHT22;11659;51.092;7.080;2022-11-20T08:42:47;3.80;99.90
22986;DHT22;11659;51.092;7.080;2022-11-20T08:45:13;3.80;99.90
22986;DHT22;11659;51.092;7.080;2022-11-20T08:47:39;3.90;99.90
22986;DHT22;11659;51.092;7.080;2022-11-20T08:50:06;3.90;99.90
22986;DHT22;11659;51.092;7.080;2022-11-20T08:52:32;3.90;99.90
22986;DHT22;11659;51.092;7.080;2022-11-20T08:54:58;4.00;99.90
22986;DHT22;11659;51.092;7.080;2022-11-20T08:57:24;4.10;99.90
22986;DHT22;11659;51.092;7.080;2022-11-20T08:59:51;4.00;99.90
22986;DHT22;11659;51.092;7.080;2022-11-20T09:02:17;4.00;99.90
22986;DHT22;11659;51.092;7.080;2022-11-20T09:04:43;3.90;99.90
22986;DHT22;11659;51.092;7.080;2022-11-20T09:07:09;3.90;99.90
22986;DHT22;11659;51.092;7.080;2022-11-20T09:09:35;3.90;99.90
22986;DHT22;11659;51.092;7.080;2022-11-20T09:12:01;4.00;99.90
22986;DHT22;11659;51.092;7.080;2022-11-20T09:14:27;4.10;99.90
22986;DHT22;11659;51.092;7.080;2022-11-20T09:16:56;4.10;99.90
22986;DHT22;11659;51.092;7.080;2022-11-20T09:19:23;4.10;99.90
22986;DHT22;11659;51.092;7.080;2022-11-20T09:21:49;4.10;99.90
22986;DHT22;11659;51.092;7.080;2022-11-20T09:24:15;4.20;99.90
22986;DHT22;11659;51.092;7.080;2022-11-20T09:26:40;4.20;99.90
22986;DHT22;11659;51.092;7.080;2022-11-20T09:29:06;4.20;99.90
22986;DHT22;11659;51.092;7.080;2022-11-20T09:31:32;4.30;99.90
22986;DHT22;11659;51.092;7.080;2022-11-20T09:34:00;3.10;99.90
22986;DHT22;11659;51.092;7.080;2022-11-20T09:36:26;4.30;99.90
22986;DHT22;11659;51.092;7.080;2022-11-20T09:38:52;4.30;99.90
22986;DHT22;11659;51.092;7.080;2022-11-20T09:41:42;3.70;99.90
22986;DHT22;11659;51.092;7.080;2022-11-20T09:44:24;4.40;99.90
22986;DHT22;11659;51.092;7.080;2022-11-20T09:46:57;4.40;99.90
22986;DHT22;11659;51.092;7.080;2022-11-20T09:49:32;4.50;99.90
22986;DHT22;11659;51.092;7.080;2022-11-20T09:52:12;4.50;99.90
22986;DHT22;11659;51.092;7.080;2022-11-20T09:54:42;4.50;99.90
22986;DHT22;11659;51.092;7.080;2022-11-20T09:57:13;4.50;99.90
22986;DHT22;11659;51.092;7.080;2022-11-20T09:59:41;4.60;99.90
22986;DHT22;11659;51.092;7.080;2022-11-20T10:02:16;4.60;99.90
22986;DHT22;11659;51.092;7.080;2022-11-20T10:04:49;4.70;99.90
22986;DHT22;11659;51.092;7.080;2022-11-20T10:07:21;4.70;99.90
22986;DHT22;11659;51.092;7.080;2022-11-20T10:09:52;4.80;99.90
22986;DHT22;11659;51.092;7.080;2022-11-20T10:12:25;4.80;99.90
22986;DHT22;11659;51.092;7.080;2022-11-20T10:15:02;4.90;99.90
22986;DHT22;11659;51.092;7.080;2022-11-20T10:17:46;5.00;99.90
22986;DHT22;11659;51.092;7.080;2022-11-20T10:20:23;5.10;99.90
22986;DHT22;11659;51.092;7.080;2022-11-20T10:23:04;5.10;99.90
22986;DHT22;11659;51.092;7.080;2022-11-20T10:25:39;5.20;99.90
22986;DHT22;11659;51.092;7.080;2022-11-20T10:28:28;5.10;99.90
22986;DHT22;11659;51.092;7.080;2022-11-20T10:31:02;5.10;99.90
22986;DHT22;11659;51.092;7.080;2022-11-20T10:33:32;5.10;99.90
22986;DHT22;11659;51.092;7.080;2022-11-20T10:36:08;5.00;99.90
22986;DHT22;11659;51.092;7.080;2022-11-20T10:38:40;5.00;99.90
22986;DHT22;11659;51.092;7.080;2022-11-20T10:41:15;5.00;99.90
22986;DHT22;11659;51.092;7.080;2022-11-20T10:43:58;5.00;99.90
22986;DHT22;11659;51.092;7.080;2022-11-20T10:46:32;5.00;99.90
22986;DHT22;11659;51.092;7.080;2022-11-20T10:49:00;5.10;99.90
22986;DHT22;11659;51.092;7.080;2022-11-20T10:51:35;5.10;99.90
22986;DHT22;11659;51.092;7.080;2022-11-20T10:54:12;5.20;99.90
22986;DHT22;11659;51.092;7.080;2022-11-20T10:56:46;5.20;99.90
22986;DHT22;11659;51.092;7.080;2022-11-20T10:59:28;5.20;99.90
22986;DHT22;11659;51.092;7.080;2022-11-20T11:01:58;5.20;99.90
22986;DHT22;11659;51.092;7.080;2022-11-20T11:04:32;5.30;99.90
22986;DHT22;11659;51.092;7.080;2022-11-20T11:07:06;5.30;99.90
22986;DHT22;11659;51.092;7.080;2022-11-20T11:09:37;5.20;99.90
22986;DHT22;11659;51.092;7.080;2022-11-20T11:12:07;5.20;99.90
22986;DHT22;11659;51.092;7.080;2022-11-20T11:14:45;5.20;99.90
22986;DHT22;11659;51.092;7.080;2022-11-20T11:17:21;5.20;99.90
22986;DHT22;11659;51.092;7.080;2022-11-20T11:20:00;5.30;99.90
22986;DHT22;11659;51.092;7.080;2022-11-20T11:22:30;5.40;99.90
22986;DHT22;11659;51.092;7.080;2022-11-20T11:24:57;5.40;99.90
22986;DHT22;11659;51.092;7.080;2022-11-20T11:27:22;5.40;99.90
22986;DHT22;11659;51.092;7.080;2022-11-20T11:29:48;5.50;99.90
22986;DHT22;11659;51.092;7.080;2022-11-20T11:32:17;5.50;99.90
22986;DHT22;11659;51.092;7.080;2022-11-20T11:34:43;5.50;99.90
22986;DHT22;11659;51.092;7.080;2022-11-20T11:37:14;5.50;99.90
22986;DHT22;11659;51.092;7.080;2022-11-20T11:39:44;5.50;99.90
22986;DHT22;11659;51.092;7.080;2022-11-20T11:42:15;5.60;99.90
22986;DHT22;11659;51.092;7.080;2022-11-20T11:44:45;5.60;99.90
22986;DHT22;11659;51.092;7.080;2022-11-20T11:47:31;5.60;99.90
22986;DHT22;11659;51.092;7.080;2022-11-20T11:52:46;5.60;99.90
22986;DHT22;11659;51.092;7.080;2022-11-20T11:55:23;5.60;99.90
22986;DHT22;11659;51.092;7.080;2022-11-20T11:57:54;5.60;99.90
22986;DHT22;11659;51.092;7.080;2022-11-20T12:00:22;5.70;99.90
22986;DHT22;11659;51.092;7.080;2022-11-20T12:02:57;5.70;99.90
22986;DHT22;11659;51.092;7.080;2022-11-20T12:05:30;5.80;99.90
22986;DHT22;11659;51.092;7.080;2022-11-20T12:08:03;5.80;99.90
22986;DHT22;11659;51.092;7.080;2022-11-20T12:10:40;5.80;99.90
22986;DHT22;11659;51.092;7.080;2022-11-20T12:13:20;5.80;99.90
22986;DHT22;11659;51.092;7.080;2022-11-20T12:15:48;5.80;99.90
22986;DHT22;11659;51.092;7.080;2022-11-20T12:18:16;5.90;99.90
22986;DHT22;11659;51.092;7.080;2022-11-20T12:20:49;5.90;99.90
22986;DHT22;11659;51.092;7.080;2022-11-20T12:23:20;5.90;99.90
22986;DHT22;11659;51.092;7.080;2022-11-20T12:25:52;5.90;99.90
22986;DHT22;11659;51.092;7.080;2022-11-20T12:28:31;5.90;99.90
22986;DHT22;11659;51.092;7.080;2022-11-20T12:31:13;5.90;99.90
22986;DHT22;11659;51.092;7.080;2022-11-20T12:33:59;6.00;99.90
22986;DHT22;11659;51.092;7.080;2022-11-20T12:36:32;6.00;99.90
22986;DHT22;11659;51.092;7.080;2022-11-20T12:39:12;5.90;99.90
22986;DHT22;11659;51.092;7.080;2022-11-20T12:41:55;5.90;99.90
22986;DHT22;11659;51.092;7.080;2022-11-20T12:45:06;6.00;99.90
22986;DHT22;11659;51.092;7.080;2022-11-20T12:47:51;6.00;99.90
22986;DHT22;11659;51.092;7.080;2022-11-20T12:50:29;6.10;99.90
22986;DHT22;11659;51.092;7.080;2022-11-20T12:52:57;6.10;99.90
22986;DHT22;11659;51.092;7.080;2022-11-20T12:55:33;6.10;99.90
22986;DHT22;11659;51.092;7.080;2022-11-20T12:58:08;6.20;99.90
22986;DHT22;11659;51.092;7.080;2022-11-20T13:00:40;6.20;99.90
22986;DHT22;11659;51.092;7.080;2022-11-20T13:03:24;7.40;99.90
22986;DHT22;11659;51.092;7.080;2022-11-20T13:05:59;6.20;99.90
22986;DHT22;11659;51.092;7.080;2022-11-20T13:08:29;6.20;99.90
22986;DHT22;11659;51.092;7.080;2022-11-20T13:11:02;6.20;99.90
22986;DHT22;11659;51.092;7.080;2022-11-20T13:13:40;6.20;99.90
22986;DHT22;11659;51.092;7.080;2022-11-20T13:16:14;6.20;99.90
22986;DHT22;11659;51.092;7.080;2022-11-20T13:18:42;6.20;99.90
22986;DHT22;11659;51.092;7.080;2022-11-20T13:21:15;6.20;99.90
22986;DHT22;11659;51.092;7.080;2022-11-20T13:23:41;6.30;99.90
22986;DHT22;11659;51.092;7.080;2022-11-20T13:26:16;6.30;99.90
22986;DHT22;11659;51.092;7.080;2022-11-20T13:28:45;6.30;99.90
22986;DHT22;11659;51.092;7.080;2022-11-20T13:31:29;6.30;99.90
22986;DHT22;11659;51.092;7.080;2022-11-20T13:33:56;6.40;99.90
22986;DHT22;11659;51.092;7.080;2022-11-20T13:36:25;6.40;99.90
22986;DHT22;11659;51.092;7.080;2022-11-20T13:38:53;6.50;99.90
22986;DHT22;11659;51.092;7.080;2022-11-20T13:41:24;6.60;99.90
22986;DHT22;11659;51.092;7.080;2022-11-20T13:43:58;6.60;99.90
22986;DHT22;11659;51.092;7.080;2022-11-20T13:46:35;6.60;99.90
22986;DHT22;11659;51.092;7.080;2022-11-20T13:49:06;6.70;99.90
22986;DHT22;11659;51.092;7.080;2022-11-20T13:51:40;6.70;99.90
22986;DHT22;11659;51.092;7.080;2022-11-20T13:54:50;6.70;99.90
22986;DHT22;11659;51.092;7.080;2022-11-20T13:57:39;6.70;99.90
22986;DHT22;11659;51.092;7.080;2022-11-20T14:00:13;6.70;99.90
22986;DHT22;11659;51.092;7.080;2022-11-20T14:02:40;6.70;99.90
22986;DHT22;11659;51.092;7.080;2022-11-20T14:05:17;6.70;99.90
22986;DHT22;11659;51.092;7.080;2022-11-20T14:07:44;6.70;99.90
22986;DHT22;11659;51.092;7.080;2022-11-20T14:10:21;6.70;99.90
22986;DHT22;11659;51.092;7.080;2022-11-20T14:12:47;6.70;99.90
22986;DHT22;11659;51.092;7.080;2022-11-20T14:15:25;6.60;99.90
22986;DHT22;11659;51.092;7.080;2022-11-20T14:17:52;6.60;99.90
22986;DHT22;11659;51.092;7.080;2022-11-20T14:20:18;6.60;99.90
22986;DHT22;11659;51.092;7.080;2022-11-20T14:22:49;6.60;99.90
22986;DHT22;11659;51.092;7.080;2022-11-20T14:25:20;6.60;99.90
22986;DHT22;11659;51.092;7.080;2022-11-20T14:27:52;6.70;99.90
22986;DHT22;11659;51.092;7.080;2022-11-20T14:30:21;6.70;99.90
22986;DHT22;11659;51.092;7.080;2022-11-20T14:32:49;6.70;99.90
22986;DHT22;11659;51.092;7.080;2022-11-20T14:35:20;6.70;99.90
22986;DHT22;11659;51.092;7.080;2022-11-20T14:37:47;6.70;99.90
22986;DHT22;11659;51.092;7.080;2022-11-20T14:40:26;6.70;99.90
22986;DHT22;11659;51.092;7.080;2022-11-20T14:42:52;6.70;99.90
22986;DHT22;11659;51.092;7.080;2022-11-20T14:45:19;6.60;99.90
22986;DHT22;11659;51.092;7.080;2022-11-20T14:47:46;6.60;99.90
22986;DHT22;11659;51.092;7.080;2022-11-20T14:50:18;6.60;99.90
22986;DHT22;11659;51.092;7.080;2022-11-20T14:52:50;6.70;99.90
22986;DHT22;11659;51.092;7.080;2022-11-20T14:55:25;6.70;99.90
22986;DHT22;11659;51.092;7.080;2022-11-20T14:57:55;6.60;99.90
22986;DHT22;11659;51.092;7.080;2022-11-20T15:00:22;6.60;99.90
22986;DHT22;11659;51.092;7.080;2022-11-20T15:02:49;6.70;99.90
22986;DHT22;11659;51.092;7.080;2022-11-20T15:05:18;6.70;99.90
22986;DHT22;11659;51.092;7.080;2022-11-20T15:07:46;6.70;99.90
22986;DHT22;11659;51.092;7.080;2022-11-20T15:10:19;6.60;99.90
22986;DHT22;11659;51.092;7.080;2022-11-20T15:12:48;6.60;99.90
22986;DHT22;11659;51.092;7.080;2022-11-20T15:15:18;6.60;99.90
22986;DHT22;11659;51.092;7.080;2022-11-20T15:17:44;6.60;99.90
22986;DHT22;11659;51.092;7.080;2022-11-20T15:20:13;6.70;99.90
22986;DHT22;11659;51.092;7.080;2022-11-20T15:22:41;6.70;99.90
22986;DHT22;11659;51.092;7.080;2022-11-20T15:25:12;6.60;99.90
22986;DHT22;11659;51.092;7.080;2022-11-20T15:27:38;6.60;99.90
22986;DHT22;11659;51.092;7.080;2022-11-20T15:30:12;6.70;99.90
22986;DHT22;11659;51.092;7.080;2022-11-20T15:32:39;6.70;99.90
22986;DHT22;11659;51.092;7.080;2022-11-20T15:35:07;6.70;99.90
22986;DHT22;11659;51.092;7.080;2022-11-20T15:37:33;6.70;99.90
22986;DHT22;11659;51.092;7.080;2022-11-20T15:40:01;6.60;99.90
22986;DHT22;11659;51.092;7.080;2022-11-20T15:42:27;6.60;99.90
22986;DHT22;11659;51.092;7.080;2022-11-20T15:44:53;7.30;99.90
22986;DHT22;11659;51.092;7.080;2022-11-20T15:47:19;6.60;99.90
22986;DHT22;11659;51.092;7.080;2022-11-20T15:49:48;6.50;99.90
22986;DHT22;11659;51.092;7.080;2022-11-20T15:52:15;6.50;99.90
22986;DHT22;11659;51.092;7.080;2022-11-20T15:54:42;6.50;99.90
22986;DHT22;11659;51.092;7.080;2022-11-20T15:57:09;6.40;99.90
22986;DHT22;11659;51.092;7.080;2022-11-20T15:59:35;6.40;99.90
22986;DHT22;11659;51.092;7.080;2022-11-20T16:02:08;6.90;99.90